Selma, Arkansas
Current Conditions -  °F | °C
As of 1:53 PM on Saturday 25 Oct 2014 (Local Time) from KLLQ Reporting Station
Clear Clear  
Wind Chill: 81°   Ceiling: Unl
Heat Index: 82°   Visibility: 10mi
Dew Point: 62°   Wind: 6mph
Humidity: 52%   Direction: 260°W
Pressure: 30.08"   Gusts: NA
Location:  33.6617°N, 91.5342°W
Report Text: KLLQ 251853Z AUTO 26005KT 10SM CLR 27/17 A3008 RMK AO2 SLP182 T02720167
Loading
Personal Weather Stations






























Interactive Weather Map
Tropical Storm Tracking
New forecast layout! Learn more

10-Day Weather Forecast

Advertisements
Track Severe Weather on mobile